Time;durP1;ratioP1;P1;durP2;ratioP2;P2;SDS_P1;SDS_P2;PMS_P1;PMS_P2;Temp;Humidity;BMP_temperature;BMP_pressure;BME280_temperature;BME280_humidity;BME280_pressure;Samples;Min_cycle;Max_cycle;Signal;HPM_P1;HPM_P2
2023/02/03 00:01:02;;;;;;;6.10;5.50;;;;;;;-128.00;-1.00;-1.00;103044;1257;1003078;-56
2023/02/03 00:03:33;;;;;;;10.00;5.80;;;;;;;-128.00;-1.00;-1.00;103064;1257;1013519;-50
2023/02/03 00:06:00;;;;;;;6.20;4.80;;;;;;;-128.00;-1.00;-1.00;102975;1256;1003058;-51
2023/02/03 00:08:27;;;;;;;5.70;4.00;;;;;;;-128.00;-1.00;-1.00;103019;1257;1002556;-47
2023/02/03 00:10:54;;;;;;;4.90;4.30;;;;;;;-128.00;-1.00;-1.00;103114;1255;1003322;-49
2023/02/03 00:13:21;;;;;;;5.10;4.30;;;;;;;-128.00;-1.00;-1.00;103181;1251;1003066;-50
2023/02/03 00:15:47;;;;;;;4.40;4.00;;;;;;;-128.00;-1.00;-1.00;102935;1251;1002559;-52
2023/02/03 00:18:14;;;;;;;4.80;3.80;;;;;;;-128.00;-1.00;-1.00;102731;1251;1002593;-53
2023/02/03 00:20:42;;;;;;;3.60;3.10;;;;;;;-128.00;-1.00;-1.00;103322;1254;1003466;-50
2023/02/03 00:23:09;;;;;;;7.50;4.90;;;;;;;-128.00;-1.00;-1.00;103258;1257;1002627;-52
2023/02/03 00:25:36;;;;;;;6.30;4.80;;;;;;;-128.00;-1.00;-1.00;103346;1256;1003780;-53
2023/02/03 00:28:04;;;;;;;4.60;4.20;;;;;;;-128.00;-1.00;-1.00;103256;1251;1002538;-47
2023/02/03 00:30:33;;;;;;;5.00;4.60;;;;;;;-128.00;-1.00;-1.00;103055;1251;1003276;-52
2023/02/03 00:33:00;;;;;;;7.60;5.20;;;;;;;-128.00;-1.00;-1.00;103171;1256;1013810;-50
2023/02/03 00:35:27;;;;;;;9.10;4.70;;;;;;;-128.00;-1.00;-1.00;103140;1257;1003185;-51
2023/02/03 00:37:54;;;;;;;7.40;5.50;;;;;;;-128.00;-1.00;-1.00;103088;1257;1002822;-55
2023/02/03 00:40:22;;;;;;;5.60;4.60;;;;;;;-128.00;-1.00;-1.00;103263;1255;1003275;-53
2023/02/03 00:42:48;;;;;;;5.10;4.50;;;;;;;-128.00;-1.00;-1.00;103427;1255;1003427;-54
2023/02/03 00:45:15;;;;;;;5.80;4.10;;;;;;;-128.00;-1.00;-1.00;103035;1256;1002769;-55
2023/02/03 00:47:42;;;;;;;4.90;3.90;;;;;;;-128.00;-1.00;-1.00;103142;1256;1004494;-53
2023/02/03 00:50:10;;;;;;;6.40;4.50;;;;;;;-128.00;-1.00;-1.00;102953;1257;1002899;-51
2023/02/03 00:52:37;;;;;;;7.40;6.00;;;;;;;-128.00;-1.00;-1.00;103145;1256;1001945;-53
2023/02/03 00:55:04;;;;;;;4.40;4.00;;;;;;;-128.00;-1.00;-1.00;103112;1255;1002406;-55
2023/02/03 00:57:32;;;;;;;4.20;3.60;;;;;;;-128.00;-1.00;-1.00;103138;1251;1013119;-52
2023/02/03 00:59:59;;;;;;;7.80;4.90;;;;;;;-128.00;-1.00;-1.00;104182;1256;1003178;-55
2023/02/03 01:02:25;;;;;;;6.60;4.40;;;;;;;-128.00;-1.00;-1.00;103150;1256;1002862;-52
2023/02/03 01:04:53;;;;;;;5.50;4.20;;;;;;;-128.00;-1.00;-1.00;103132;1256;1002437;-56
2023/02/03 01:07:19;;;;;;;6.20;5.60;;;;;;;-128.00;-1.00;-1.00;103077;1257;1003517;-54
2023/02/03 01:09:47;;;;;;;8.50;5.70;;;;;;;-128.00;-1.00;-1.00;103817;1256;1002540;-54
2023/02/03 01:12:13;;;;;;;6.80;5.20;;;;;;;-128.00;-1.00;-1.00;102828;1251;1002592;-51
2023/02/03 01:14:40;;;;;;;6.50;4.50;;;;;;;-128.00;-1.00;-1.00;102914;1257;1002672;-54
2023/02/03 01:17:07;;;;;;;9.10;6.10;;;;;;;-128.00;-1.00;-1.00;103159;1257;1004887;-54
2023/02/03 01:19:33;;;;;;;5.90;5.40;;;;;;;-128.00;-1.00;-1.00;103064;1257;1003939;-54
2023/02/03 01:22:00;;;;;;;8.70;5.60;;;;;;;-128.00;-1.00;-1.00;103382;1256;1002890;-54
2023/02/03 01:24:29;;;;;;;6.70;5.60;;;;;;;-128.00;-1.00;-1.00;102974;1257;1002784;-53
2023/02/03 01:26:55;;;;;;;7.90;5.80;;;;;;;-128.00;-1.00;-1.00;103391;1253;1011385;-54
2023/02/03 01:29:22;;;;;;;9.60;6.40;;;;;;;-128.00;-1.00;-1.00;102841;1257;1002674;-55
2023/02/03 01:31:49;;;;;;;9.90;6.50;;;;;;;-128.00;-1.00;-1.00;102955;1257;1002802;-56
2023/02/03 01:34:17;;;;;;;10.90;6.50;;;;;;;-128.00;-1.00;-1.00;103170;1257;1003067;-54
2023/02/03 01:36:45;;;;;;;12.20;7.50;;;;;;;-128.00;-1.00;-1.00;103701;1256;1002888;-54
2023/02/03 01:39:12;;;;;;;8.70;7.10;;;;;;;-128.00;-1.00;-1.00;103542;1256;1003235;-54
2023/02/03 01:41:39;;;;;;;9.60;6.30;;;;;;;-128.00;-1.00;-1.00;103045;1256;1003492;-55
2023/02/03 01:44:34;;;;;;;8.80;6.90;;;;;;;-128.00;-1.00;-1.00;103154;1257;1002856;-56
2023/02/03 01:47:01;;;;;;;8.80;5.20;;;;;;;-128.00;-1.00;-1.00;102857;1257;1012996;-55
2023/02/03 01:49:30;;;;;;;7.40;5.00;;;;;;;-128.00;-1.00;-1.00;104130;1251;1002753;-55
2023/02/03 01:51:57;;;;;;;12.10;5.90;;;;;;;-128.00;-1.00;-1.00;103317;1256;1011016;-55
2023/02/03 01:54:26;;;;;;;7.40;5.50;;;;;;;-128.00;-1.00;-1.00;103529;1254;1002921;-55
2023/02/03 01:56:54;;;;;;;8.10;5.50;;;;;;;-128.00;-1.00;-1.00;103986;1251;1012896;-55
2023/02/03 01:59:21;;;;;;;8.80;6.00;;;;;;;-128.00;-1.00;-1.00;103196;1251;1012051;-56
2023/02/03 02:01:49;;;;;;;6.60;5.80;;;;;;;-128.00;-1.00;-1.00;102875;1257;1002799;-53
2023/02/03 02:04:16;;;;;;;7.60;5.20;;;;;;;-128.00;-1.00;-1.00;102904;1257;1002789;-54
2023/02/03 02:06:46;;;;;;;7.90;5.50;;;;;;;-128.00;-1.00;-1.00;102789;1257;1002980;-54
2023/02/03 02:09:13;;;;;;;10.80;6.80;;;;;;;-128.00;-1.00;-1.00;103122;1257;1012529;-54
2023/02/03 02:11:42;;;;;;;6.90;4.80;;;;;;;-128.00;-1.00;-1.00;103041;1251;1012355;-54
2023/02/03 02:14:09;;;;;;;11.30;5.80;;;;;;;-128.00;-1.00;-1.00;102732;1257;1004130;-51
2023/02/03 02:16:53;;;;;;;7.60;5.60;;;;;;;-128.00;-1.00;-1.00;102964;1257;1002656;-54
2023/02/03 02:19:51;;;;;;;7.20;5.80;;;;;;;-128.00;-1.00;-1.00;102882;1254;1012807;-54
2023/02/03 02:22:26;;;;;;;9.00;5.50;;;;;;;-128.00;-1.00;-1.00;103187;1254;1012086;-54
2023/02/03 02:25:22;;;;;;;8.30;5.90;;;;;;;-128.00;-1.00;-1.00;102878;1251;1012560;-54
2023/02/03 02:28:18;;;;;;;10.60;6.80;;;;;;;-128.00;-1.00;-1.00;102938;1256;1010137;-51
2023/02/03 02:31:07;;;;;;;8.20;6.50;;;;;;;-128.00;-1.00;-1.00;103051;1260;1011614;-52
2023/02/03 02:33:36;;;;;;;8.60;7.10;;;;;;;-128.00;-1.00;-1.00;103108;1257;1012731;-55
2023/02/03 02:36:41;;;;;;;8.90;6.70;;;;;;;-128.00;-1.00;-1.00;103138;1257;1002895;-51
2023/02/03 02:39:13;;;;;;;12.30;6.60;;;;;;;-128.00;-1.00;-1.00;102750;1260;1012914;-47
2023/02/03 02:41:46;;;;;;;7.70;6.00;;;;;;;-128.00;-1.00;-1.00;103268;1256;1010665;-49
2023/02/03 02:44:20;;;;;;;7.30;5.60;;;;;;;-128.00;-1.00;-1.00;103236;1257;1010559;-53
2023/02/03 02:46:49;;;;;;;8.50;6.80;;;;;;;-128.00;-1.00;-1.00;103067;1260;1012958;-50
2023/02/03 02:49:22;;;;;;;10.80;5.90;;;;;;;-128.00;-1.00;-1.00;103192;1257;1012678;-46
2023/02/03 02:51:48;;;;;;;11.20;5.90;;;;;;;-128.00;-1.00;-1.00;103361;1254;1012542;-47
2023/02/03 02:54:18;;;;;;;6.60;5.90;;;;;;;-128.00;-1.00;-1.00;103337;1257;1002905;-50
2023/02/03 02:56:48;;;;;;;9.40;5.70;;;;;;;-128.00;-1.00;-1.00;102844;1251;1010832;-50
2023/02/03 02:59:15;;;;;;;7.40;5.50;;;;;;;-128.00;-1.00;-1.00;103342;1251;1012931;-49
2023/02/03 03:01:41;;;;;;;6.80;6.10;;;;;;;-128.00;-1.00;-1.00;103183;1255;1003177;-52
2023/02/03 03:04:10;;;;;;;7.70;6.20;;;;;;;-128.00;-1.00;-1.00;102867;1257;1002869;-50
2023/02/03 03:06:47;;;;;;;11.10;5.60;;;;;;;-128.00;-1.00;-1.00;103235;1254;1010216;-48
2023/02/03 03:09:20;;;;;;;7.20;5.80;;;;;;;-128.00;-1.00;-1.00;102902;1254;1014170;-50
2023/02/03 03:11:53;;;;;;;9.90;6.40;;;;;;;-128.00;-1.00;-1.00;103389;1256;1012583;-48
2023/02/03 03:14:20;;;;;;;10.80;6.20;;;;;;;-128.00;-1.00;-1.00;103305;1256;1012072;-51
2023/02/03 03:16:59;;;;;;;10.70;5.90;;;;;;;-128.00;-1.00;-1.00;103653;1251;1004400;-50
2023/02/03 03:19:29;;;;;;;5.90;4.70;;;;;;;-128.00;-1.00;-1.00;103229;1257;1010435;-53
2023/02/03 03:21:57;;;;;;;7.30;6.20;;;;;;;-128.00;-1.00;-1.00;102945;1261;1011502;-54
2023/02/03 03:24:28;;;;;;;7.60;5.50;;;;;;;-128.00;-1.00;-1.00;103251;1251;1014124;-49
2023/02/03 03:26:57;;;;;;;8.30;5.50;;;;;;;-128.00;-1.00;-1.00;103429;1257;1012798;-53
2023/02/03 03:29:59;;;;;;;9.50;5.00;;;;;;;-128.00;-1.00;-1.00;103000;1257;1012986;-51
2023/02/03 03:32:26;;;;;;;7.30;5.00;;;;;;;-128.00;-1.00;-1.00;102928;1257;1011262;-50
2023/02/03 03:34:53;;;;;;;6.30;4.50;;;;;;;-128.00;-1.00;-1.00;103377;1257;1002828;-51
2023/02/03 03:37:41;;;;;;;6.30;4.70;;;;;;;-128.00;-1.00;-1.00;103046;1254;1002413;-50
2023/02/03 03:40:18;;;;;;;7.90;5.40;;;;;;;-128.00;-1.00;-1.00;102995;1257;1012623;-52
2023/02/03 03:43:05;;;;;;;6.00;4.60;;;;;;;-128.00;-1.00;-1.00;103168;1259;1012798;-52
2023/02/03 03:45:37;;;;;;;9.40;6.00;;;;;;;-128.00;-1.00;-1.00;103191;1257;1010028;-54
2023/02/03 03:48:22;;;;;;;8.20;4.80;;;;;;;-128.00;-1.00;-1.00;103322;1257;1010735;-51
2023/02/03 03:50:51;;;;;;;;;;;;;;;-128.00;-1.00;-1.00;102957;1257;1013508;-50
2023/02/03 03:53:18;;;;;;;8.10;4.20;;;;;;;-128.00;-1.00;-1.00;102845;1258;1012143;-54
2023/02/03 03:55:47;;;;;;;7.10;6.30;;;;;;;-128.00;-1.00;-1.00;103125;1256;1002706;-53
2023/02/03 03:58:17;;;;;;;8.60;4.70;;;;;;;-128.00;-1.00;-1.00;103074;1257;1010658;-50
2023/02/03 04:00:44;;;;;;;8.00;4.50;;;;;;;-128.00;-1.00;-1.00;103343;1253;1012510;-50
2023/02/03 04:03:13;;;;;;;8.70;5.60;;;;;;;-128.00;-1.00;-1.00;103126;1257;1003669;-48
2023/02/03 04:05:41;;;;;;;8.10;5.30;;;;;;;-128.00;-1.00;-1.00;103444;1263;1012379;-51
2023/02/03 04:08:07;;;;;;;6.20;4.30;;;;;;;-128.00;-1.00;-1.00;103050;1257;1002967;-47
2023/02/03 04:10:39;;;;;;;5.50;4.80;;;;;;;-128.00;-1.00;-1.00;103424;1255;1002434;-52
2023/02/03 04:13:06;;;;;;;9.70;6.20;;;;;;;-128.00;-1.00;-1.00;104129;1251;1010894;-48
2023/02/03 04:15:33;;;;;;;7.20;5.90;;;;;;;-128.00;-1.00;-1.00;103418;1256;1003940;-50
2023/02/03 04:18:00;;;;;;;7.70;6.50;;;;;;;-128.00;-1.00;-1.00;102937;1256;1002757;-52
2023/02/03 04:20:28;;;;;;;9.80;5.70;;;;;;;-128.00;-1.00;-1.00;103309;1256;1004510;-48
2023/02/03 04:22:56;;;;;;;8.10;6.30;;;;;;;-128.00;-1.00;-1.00;103476;1257;1011648;-51
2023/02/03 04:25:24;;;;;;;8.60;6.10;;;;;;;-128.00;-1.00;-1.00;103285;1257;1004418;-49
2023/02/03 04:27:50;;;;;;;9.30;7.10;;;;;;;-128.00;-1.00;-1.00;103415;1256;1002514;-52
2023/02/03 04:30:17;;;;;;;9.00;6.80;;;;;;;-128.00;-1.00;-1.00;103205;1256;1003600;-50
2023/02/03 04:32:44;;;;;;;9.50;5.80;;;;;;;-128.00;-1.00;-1.00;102956;1257;1002846;-48
2023/02/03 04:35:11;;;;;;;9.00;6.60;;;;;;;-128.00;-1.00;-1.00;103254;1257;1002866;-54
2023/02/03 04:37:38;;;;;;;8.30;6.50;;;;;;;-128.00;-1.00;-1.00;103088;1256;1002636;-55
2023/02/03 04:40:05;;;;;;;9.10;6.50;;;;;;;-128.00;-1.00;-1.00;103171;1257;1002370;-48
2023/02/03 04:42:32;;;;;;;9.80;6.40;;;;;;;-128.00;-1.00;-1.00;103734;1257;1002757;-51
2023/02/03 04:44:58;;;;;;;10.30;6.40;;;;;;;-128.00;-1.00;-1.00;103048;1256;1003064;-49
2023/02/03 04:47:25;;;;;;;12.20;6.60;;;;;;;-128.00;-1.00;-1.00;102868;1256;1002146;-51
2023/02/03 04:49:52;;;;;;;9.40;5.90;;;;;;;-128.00;-1.00;-1.00;103143;1251;1002510;-50
2023/02/03 04:52:18;;;;;;;9.30;6.00;;;;;;;-128.00;-1.00;-1.00;105568;1251;1002714;-49
2023/02/03 04:54:45;;;;;;;8.00;6.80;;;;;;;-128.00;-1.00;-1.00;103011;1251;1002757;-50
2023/02/03 04:57:11;;;;;;;11.00;6.60;;;;;;;-128.00;-1.00;-1.00;103040;1257;1002970;-48
2023/02/03 04:59:38;;;;;;;13.50;7.20;;;;;;;-128.00;-1.00;-1.00;102980;1257;1002726;-53
2023/02/03 05:02:04;;;;;;;6.20;5.50;;;;;;;-128.00;-1.00;-1.00;103130;1256;1002593;-50
2023/02/03 05:04:31;;;;;;;11.80;6.70;;;;;;;-128.00;-1.00;-1.00;103021;1257;1002563;-53
2023/02/03 05:06:58;;;;;;;9.30;7.20;;;;;;;-128.00;-1.00;-1.00;103244;1257;1002890;-51
2023/02/03 05:09:25;;;;;;;10.70;7.80;;;;;;;-128.00;-1.00;-1.00;102952;1257;1003045;-47
2023/02/03 05:11:57;;;;;;;11.40;6.50;;;;;;;-128.00;-1.00;-1.00;103454;1257;1009887;-49
2023/02/03 05:14:23;;;;;;;8.50;6.10;;;;;;;-128.00;-1.00;-1.00;103377;1257;1002545;-55
2023/02/03 05:16:50;;;;;;;10.10;7.30;;;;;;;-128.00;-1.00;-1.00;103188;1256;1003876;-51
2023/02/03 05:19:17;;;;;;;13.00;7.40;;;;;;;-128.00;-1.00;-1.00;102973;1257;1002910;-54
2023/02/03 05:21:44;;;;;;;9.20;7.20;;;;;;;-128.00;-1.00;-1.00;102990;1254;1002662;-50
2023/02/03 05:24:11;;;;;;;13.50;8.00;;;;;;;-128.00;-1.00;-1.00;103058;1254;1002747;-50
2023/02/03 05:26:37;;;;;;;9.80;7.20;;;;;;;-128.00;-1.00;-1.00;102892;1251;1004197;-49
2023/02/03 05:29:04;;;;;;;12.00;8.10;;;;;;;-128.00;-1.00;-1.00;102954;1251;1002510;-51
2023/02/03 05:31:32;;;;;;;12.50;8.90;;;;;;;-128.00;-1.00;-1.00;102942;1251;1005032;-51
2023/02/03 05:33:59;;;;;;;11.70;7.80;;;;;;;-128.00;-1.00;-1.00;103021;1254;1013903;-51
2023/02/03 05:36:25;;;;;;;10.30;8.40;;;;;;;-128.00;-1.00;-1.00;103448;1257;1002147;-48
2023/02/03 05:38:52;;;;;;;12.00;8.50;;;;;;;-128.00;-1.00;-1.00;103100;1254;1002457;-53
2023/02/03 05:44:04;;;;;;;12.10;7.80;;;;;;;-128.00;-1.00;-1.00;102969;1254;1012654;-50
2023/02/03 05:46:31;;;;;;;12.10;7.80;;;;;;;-128.00;-1.00;-1.00;103123;1257;1002889;-50
2023/02/03 05:51:16;;;;;;;15.90;9.30;;;;;;;1.70;100.00;100312.14;103605;1295;600719;-80
2023/02/03 05:53:44;;;;;;;10.80;7.90;;;;;;;1.67;100.00;100311.27;104749;1259;61335;-51
2023/02/03 05:56:12;;;;;;;15.40;9.70;;;;;;;1.66;100.00;100262.78;104688;1257;60699;-51
2023/02/03 05:58:40;;;;;;;9.30;7.40;;;;;;;1.67;100.00;100235.90;105154;1257;72265;-50
2023/02/03 06:01:10;;;;;;;13.70;8.40;;;;;;;1.68;100.00;100214.32;105013;1257;65691;-50
2023/02/03 06:03:39;;;;;;;11.60;8.20;;;;;;;1.69;100.00;100207.94;105045;1260;72840;-48
2023/02/03 06:06:07;;;;;;;15.60;9.20;;;;;;;1.68;100.00;100192.20;104948;1257;60958;-51
2023/02/03 06:08:36;;;;;;;13.50;9.70;;;;;;;1.69;100.00;100184.77;104897;1257;61105;-50
2023/02/03 06:11:06;;;;;;;13.80;8.10;;;;;;;1.69;100.00;100176.80;104952;1257;70977;-52
2023/02/03 06:13:34;;;;;;;17.00;10.40;;;;;;;1.72;100.00;100167.56;105084;1256;68457;-50
2023/02/03 06:16:03;;;;;;;15.50;10.00;;;;;;;1.75;100.00;100164.55;105101;1256;72650;-50
2023/02/03 06:18:34;;;;;;;15.20;9.40;;;;;;;1.78;100.00;100158.88;104713;1257;60341;-52
2023/02/03 06:21:03;;;;;;;16.60;10.80;;;;;;;1.80;100.00;100159.73;104984;1254;62004;-55
2023/02/03 06:23:32;;;;;;;16.80;10.50;;;;;;;1.82;100.00;100157.60;105258;1259;72628;-50
2023/02/03 06:26:00;;;;;;;13.80;9.20;;;;;;;1.84;100.00;100158.13;105399;1256;66421;-50
2023/02/03 06:28:29;;;;;;;16.50;10.20;;;;;;;1.86;100.00;100155.46;105483;1259;71630;-50
2023/02/03 06:30:57;;;;;;;14.10;9.20;;;;;;;1.87;100.00;100157.55;105321;1257;60739;-50
2023/02/03 06:33:26;;;;;;;13.20;9.20;;;;;;;1.90;100.00;100155.59;108123;1256;59818;-46
2023/02/03 06:35:54;;;;;;;16.80;10.20;;;;;;;1.93;100.00;100155.23;106492;1260;72200;-51
2023/02/03 06:38:22;;;;;;;15.60;9.80;;;;;;;1.96;100.00;100149.01;105321;1257;66436;-49
2023/02/03 06:40:50;;;;;;;16.90;9.60;;;;;;;2.00;100.00;100149.86;105399;1257;72771;-55
2023/02/03 06:43:18;;;;;;;15.60;10.30;;;;;;;2.04;100.00;100157.27;105011;1255;59742;-49
2023/02/03 06:45:46;;;;;;;18.50;10.60;;;;;;;2.07;100.00;100159.90;104930;1255;59727;-51
2023/02/03 06:48:14;;;;;;;14.40;10.40;;;;;;;2.10;100.00;100161.48;104847;1256;72974;-50
2023/02/03 06:50:43;;;;;;;19.30;10.70;;;;;;;2.12;100.00;100156.86;108523;1258;67343;-51
2023/02/03 06:53:15;;;;;;;17.20;11.10;;;;;;;2.15;100.00;100162.14;105251;1257;73125;-50
2023/02/03 06:55:43;;;;;;;19.10;11.80;;;;;;;2.16;100.00;100161.77;104951;1256;60082;-55
2023/02/03 06:58:11;;;;;;;16.60;11.50;;;;;;;2.18;100.00;100162.65;105371;1256;59938;-50
2023/02/03 07:00:39;;;;;;;18.90;11.60;;;;;;;2.18;100.00;100159.29;105048;1256;73258;-50
2023/02/03 07:03:07;;;;;;;12.50;10.20;;;;;;;2.17;100.00;100163.02;107601;1255;66054;-56
2023/02/03 07:05:36;;;;;;;11.70;9.00;;;;;;;2.16;100.00;100163.19;104982;1256;73956;-55
2023/02/03 07:08:05;;;;;;;12.40;9.20;;;;;;;2.14;100.00;100164.61;105460;1257;61425;-56
2023/02/03 07:10:33;;;;;;;15.00;9.40;;;;;;;2.11;100.00;100163.43;105243;1259;60204;-49
2023/02/03 07:13:04;;;;;;;13.70;7.90;;;;;;;2.06;100.00;100168.40;105583;1253;73018;-52
2023/02/03 07:15:32;;;;;;;9.70;7.00;;;;;;;2.01;100.00;100171.98;105337;1257;68787;-51
2023/02/03 07:18:00;;;;;;;9.40;6.20;;;;;;;1.96;100.00;100167.96;105600;1259;70229;-47
2023/02/03 07:20:28;;;;;;;12.10;6.80;;;;;;;1.89;100.00;100168.00;105485;1256;61542;-52
2023/02/03 07:22:57;;;;;;;6.40;5.40;;;;;;;1.83;100.00;100164.86;105282;1255;60599;-53
2023/02/03 07:25:25;;;;;;;5.10;4.50;;;;;;;1.77;100.00;100163.48;105279;1257;73053;-52
2023/02/03 07:27:53;;;;;;;6.00;4.00;;;;;;;1.73;100.00;100164.55;104976;1257;67394;-48
2023/02/03 07:30:21;;;;;;;8.20;5.50;;;;;;;1.71;100.00;100167.73;105531;1256;74675;-56
2023/02/03 07:32:50;;;;;;;4.60;4.00;;;;;;;-50.19;59.60;60101.86;104137;1257;1004625;-51
2023/02/03 07:35:18;;;;;;;6.00;3.30;;;;;;;-128.00;-1.00;-1.00;102656;1257;1011100;-48
2023/02/03 07:37:47;;;;;;;7.30;4.00;;;;;;;-128.00;-1.00;-1.00;103062;1254;1013718;-48
2023/02/03 07:40:15;;;;;;;5.70;4.10;;;;;;;-128.00;-1.00;-1.00;102961;1259;1003069;-47
2023/02/03 07:42:47;;;;;;;3.30;2.50;;;;;;;-128.00;-1.00;-1.00;102906;1255;1012576;-53
2023/02/03 07:45:16;;;;;;;4.80;3.00;;;;;;;-128.00;-1.00;-1.00;103404;1256;1010137;-55
2023/02/03 07:47:43;;;;;;;1.60;1.20;;;;;;;-128.00;-1.00;-1.00;102810;1259;1010695;-52
2023/02/03 07:50:11;;;;;;;2.20;1.60;;;;;;;-128.00;-1.00;-1.00;103120;1256;1003277;-56
2023/02/03 07:52:40;;;;;;;3.20;1.30;;;;;;;-128.00;-1.00;-1.00;103222;1255;1002111;-54
2023/02/03 07:55:07;;;;;;;1.50;0.90;;;;;;;-128.00;-1.00;-1.00;102875;1259;1003063;-55
2023/02/03 07:57:36;;;;;;;1.90;1.00;;;;;;;-128.00;-1.00;-1.00;103385;1256;1002613;-51
2023/02/03 08:00:04;;;;;;;1.50;0.80;;;;;;;-128.00;-1.00;-1.00;102816;1254;1011664;-51
2023/02/03 08:02:40;;;;;;;1.10;0.70;;;;;;;-128.00;-1.00;-1.00;103058;1254;1012596;-51
2023/02/03 08:05:09;;;;;;;1.00;0.80;;;;;;;-128.00;-1.00;-1.00;102810;1258;1012372;-52
2023/02/03 08:09:23;;;;;;;1.00;0.70;;;;;;;1.39;100.00;100290.46;101434;1292;601118;-50
2023/02/03 08:11:51;;;;;;;0.80;0.60;;;;;;;1.31;100.00;100319.67;104471;1267;59526;-53
2023/02/03 08:14:21;;;;;;;0.90;0.60;;;;;;;1.27;100.00;100288.39;104222;1266;59328;-54
2023/02/03 08:16:50;;;;;;;0.80;0.60;;;;;;;1.25;100.00;100274.25;104143;1267;70123;-54
2023/02/03 08:19:18;;;;;;;1.20;0.60;;;;;;;1.23;100.00;100258.34;104215;1269;66278;-55
2023/02/03 08:21:46;;;;;;;0.60;0.60;;;;;;;1.22;100.00;100253.39;104844;1267;71563;-54
2023/02/03 08:24:14;;;;;;;0.70;0.60;;;;;;;1.22;100.00;100248.79;104130;1266;133161;-54
2023/02/03 08:26:42;;;;;;;1.10;0.60;;;;;;;1.22;100.00;100243.14;106261;1266;60978;-56
2023/02/03 08:29:10;;;;;;;0.90;0.70;;;;;;;1.21;100.00;100241.90;104385;1264;73438;-55
2023/02/03 08:31:40;;;;;;;1.30;0.70;;;;;;;1.21;100.00;100238.17;104185;1264;65672;-55
2023/02/03 08:34:08;;;;;;;0.70;0.60;;;;;;;1.20;100.00;100234.30;104786;1263;71696;-55
2023/02/03 08:36:38;;;;;;;0.70;0.60;;;;;;;1.18;100.00;100228.13;104593;1268;59864;-55
2023/02/03 08:39:07;;;;;;;1.80;0.90;;;;;;;1.19;100.00;100238.20;104728;1263;60569;-57
2023/02/03 08:41:35;;;;;;;0.80;0.70;;;;;;;1.20;100.00;100229.34;105032;1264;73820;-57
2023/02/03 08:44:03;;;;;;;0.90;0.70;;;;;;;1.21;100.00;100230.41;104707;1267;67075;-54
2023/02/03 08:46:33;;;;;;;0.60;0.60;;;;;;;1.22;100.00;100229.35;104949;1264;72306;-56
2023/02/03 08:49:02;;;;;;;0.90;0.70;;;;;;;1.23;100.00;100228.64;104831;1268;61521;-54
2023/02/03 08:51:30;;;;;;;1.10;0.80;;;;;;;1.25;100.00;100228.64;104996;1266;60969;-51
2023/02/03 08:53:58;;;;;;;1.10;0.80;;;;;;;1.27;100.00;100225.80;104808;1266;71714;-54
2023/02/03 08:56:26;;;;;;;0.70;0.70;;;;;;;1.28;100.00;100225.79;104196;1265;65275;-56
2023/02/03 08:58:54;;;;;;;1.10;0.70;;;;;;;1.26;100.00;100229.70;103927;1264;71653;-53
2023/02/03 09:01:22;;;;;;;3.30;0.70;;;;;;;1.24;100.00;100228.98;105360;1272;62061;-53
2023/02/03 09:03:51;;;;;;;1.80;0.80;;;;;;;1.21;100.00;100221.21;105493;1267;62829;-54
2023/02/03 09:06:19;;;;;;;1.60;0.80;;;;;;;1.21;100.00;100224.39;104285;1266;72199;-56
2023/02/03 09:08:52;;;;;;;1.50;0.90;;;;;;;1.23;100.00;100226.87;104814;1266;66627;-54
2023/02/03 09:11:20;;;;;;;1.80;0.80;;;;;;;1.26;100.00;100218.20;104196;1266;70985;-54
2023/02/03 09:13:48;;;;;;;0.90;0.80;;;;;;;1.30;100.00;100216.94;104343;1266;62407;-53
2023/02/03 09:16:18;;;;;;;0.90;0.80;;;;;;;1.31;100.00;100214.11;108408;1265;58123;-55
2023/02/03 09:18:46;;;;;;;1.20;0.90;;;;;;;1.33;100.00;100214.81;108329;1265;72695;-55
2023/02/03 09:21:15;;;;;;;1.50;0.80;;;;;;;1.36;100.00;100215.34;106691;1266;65814;-54
2023/02/03 09:24:02;;;;;;;2.30;0.90;;;;;;;1.39;100.00;100225.57;105292;1264;72830;-55
2023/02/03 09:26:31;;;;;;;1.20;0.90;;;;;;;1.39;100.00;100219.38;104106;1269;61708;-53
2023/02/03 09:28:59;;;;;;;1.00;0.90;;;;;;;1.41;100.00;100216.55;104268;1269;59497;-56
2023/02/03 09:31:27;;;;;;;1.20;1.00;;;;;;;1.42;100.00;100216.38;104945;1264;72580;-54
2023/02/03 09:33:55;;;;;;;2.50;0.90;;;;;;;1.46;100.00;100215.11;104535;1266;67860;-54
2023/02/03 09:36:23;;;;;;;1.40;1.10;;;;;;;1.51;100.00;100216.86;103868;1271;74287;-53
2023/02/03 09:38:52;;;;;;;1.50;1.20;;;;;;;1.56;100.00;100214.89;104666;1268;61616;-54
2023/02/03 09:41:27;;;;;;;1.40;1.20;;;;;;;1.62;100.00;100218.23;104514;1266;59950;-54
2023/02/03 09:44:17;;;;;;;1.20;1.10;;;;;;;1.66;100.00;100223.70;104247;1266;73371;-55
2023/02/03 09:46:47;;;;;;;1.30;1.00;;;;;;;1.70;100.00;100232.69;104256;1266;68387;-55
2023/02/03 09:49:24;;;;;;;1.60;1.20;;;;;;;1.75;100.00;100220.99;104584;1266;70694;-54
2023/02/03 09:52:01;;;;;;;1.50;1.30;;;;;;;1.80;100.00;100225.02;104778;1269;60306;-54
2023/02/03 09:54:51;;;;;;;2.40;1.00;;;;;;;1.84;100.00;100224.48;104535;1263;60049;-56
2023/02/03 09:57:24;;;;;;;1.70;1.30;;;;;;;1.89;100.00;100234.70;105118;1266;71882;-55
2023/02/03 09:59:53;;;;;;;1.50;0.90;;;;;;;1.93;100.00;100227.98;104606;1269;67071;-53
2023/02/03 10:02:31;;;;;;;1.50;1.00;;;;;;;1.96;100.00;100227.23;104542;1266;71226;-56
2023/02/03 10:05:17;;;;;;;1.20;0.90;;;;;;;2.02;100.00;100234.83;105085;1267;60776;-54
2023/02/03 10:07:56;;;;;;;1.60;0.90;;;;;;;2.05;100.00;100243.46;104748;1267;59656;-56
2023/02/03 10:10:33;;;;;;;1.00;0.90;;;;;;;2.04;100.00;100239.56;104778;1266;72145;-56
2023/02/03 10:13:14;;;;;;;1.10;0.90;;;;;;;2.04;100.00;100240.81;104984;1269;68274;-55
2023/02/03 10:15:46;;;;;;;2.00;1.30;;;;;;;2.05;100.00;100245.05;104622;1266;72076;-57
2023/02/03 10:18:20;;;;;;;1.30;1.00;;;;;;;2.05;100.00;100241.33;105271;1266;59635;-55
2023/02/03 10:20:56;;;;;;;1.70;1.20;;;;;;;2.04;100.00;100236.59;104334;1269;59542;-57
2023/02/03 10:23:35;;;;;;;1.30;1.10;;;;;;;2.04;100.00;100236.77;104685;1264;72550;-58
2023/02/03 10:26:08;;;;;;;1.40;0.80;;;;;;;2.04;100.00;100234.27;104231;1264;68280;-56
2023/02/03 10:29:03;;;;;;;1.40;1.00;;;;;;;2.04;100.00;100229.83;104333;1266;73177;-56
2023/02/03 10:31:33;;;;;;;1.10;0.90;;;;;;;2.05;100.00;100237.09;104551;1270;61681;-55
2023/02/03 10:34:15;;;;;;;1.70;1.00;;;;;;;2.04;100.00;100228.27;104909;1267;61500;-56
2023/02/03 10:36:57;;;;;;;1.00;0.90;;;;;;;2.03;100.00;100231.99;105278;1253;72562;-55
2023/02/03 10:39:45;;;;;;;1.00;0.90;;;;;;;2.03;100.00;100232.16;105412;1257;66004;-54
2023/02/03 10:42:13;;;;;;;1.20;1.00;;;;;;;2.03;100.00;100234.30;105961;1254;71350;-54
2023/02/03 10:44:57;;;;;;;1.20;0.70;;;;;;;2.05;100.00;100227.52;104971;1254;60066;-53
2023/02/03 10:47:38;;;;;;;1.80;0.80;;;;;;;2.06;100.00;100231.78;105051;1257;59651;-56
2023/02/03 10:50:19;;;;;;;1.10;0.80;;;;;;;2.07;100.00;100232.84;105199;1254;71382;-52
2023/02/03 10:52:48;;;;;;;1.70;1.30;;;;;;;2.09;100.00;100232.48;105349;1253;66082;-55
2023/02/03 10:55:24;;;;;;;1.80;1.10;;;;;;;2.11;100.00;100227.16;105085;1254;71137;-54
2023/02/03 10:57:52;;;;;;;1.10;1.00;;;;;;;2.15;100.00;100231.89;105354;1254;60343;-55
2023/02/03 11:00:23;;;;;;;3.70;0.80;;;;;;;2.18;100.00;100223.56;105484;1254;59720;-55
2023/02/03 11:02:59;;;;;;;1.70;0.80;;;;;;;2.20;100.00;100224.63;106349;1254;72152;-51
2023/02/03 11:05:27;;;;;;;0.90;0.80;;;;;;;2.20;100.00;100222.31;105614;1254;67251;-53
2023/02/03 11:07:55;;;;;;;1.70;0.90;;;;;;;2.19;100.00;100213.81;105439;1254;72295;-55
2023/02/03 11:10:34;;;;;;;2.20;0.90;;;;;;;2.21;100.00;100208.83;105671;1257;61307;-56
2023/02/03 11:13:19;;;;;;;1.50;0.90;;;;;;;2.23;100.00;100217.32;105754;1256;60112;-54
2023/02/03 11:15:58;;;;;;;1.40;0.90;;;;;;;2.20;100.00;100221.60;105456;1254;73288;-55
2023/02/03 11:18:39;;;;;;;2.50;1.10;;;;;;;2.16;100.00;100220.73;108991;1254;66389;-56
2023/02/03 11:21:09;;;;;;;1.20;0.80;;;;;;;2.11;100.00;100219.36;107743;1254;70419;-56
2023/02/03 11:23:49;;;;;;;0.90;0.70;;;;;;;2.05;100.00;100217.09;104927;1259;61131;-54
2023/02/03 11:26:19;;;;;;;1.40;0.90;;;;;;;2.00;100.00;100223.50;104854;1256;59593;-53
2023/02/03 11:28:49;;;;;;;1.40;1.00;;;;;;;1.96;100.00;100216.45;104757;1259;71956;-55
2023/02/03 11:31:24;;;;;;;1.50;0.90;;;;;;;1.94;100.00;100214.70;104825;1256;67540;-56
2023/02/03 11:33:57;;;;;;;2.00;0.80;;;;;;;1.94;100.00;100210.10;105637;1257;72435;-56
2023/02/03 11:36:27;;;;;;;1.80;0.70;;;;;;;1.95;100.00;100207.79;105501;1254;60120;-55